Time;durP1;ratioP1;P1;durP2;ratioP2;P2;SDS_P1;SDS_P2;PMS_P1;PMS_P2;Temp;Humidity;BMP_temperature;BMP_pressure;BME280_temperature;BME280_humidity;BME280_pressure;Samples;Min_cycle;Max_cycle;Signal;HPM_P1;HPM_P2
2022/02/23 00:02:23;;;;;;;11.95;3.95;;;4.80;99.90;;;;;;2622391;46;20085;31
2022/02/23 00:04:58;;;;;;;19.80;4.70;;;4.80;99.90;;;;;;2603710;54;20604;31
2022/02/23 00:07:36;;;;;;;;;;;4.80;99.90;;;;;;2603769;54;20085;31
2022/02/23 00:10:11;;;;;;;14.80;4.55;;;4.80;99.90;;;;;;2604004;54;19940;31
2022/02/23 00:12:47;;;;;;;13.30;3.90;;;4.80;99.90;;;;;;2603929;54;20057;31
2022/02/23 00:15:22;;;;;;;16.25;4.03;;;4.80;99.90;;;;;;2603851;54;20033;31
2022/02/23 00:17:57;;;;;;;12.43;4.20;;;4.80;99.90;;;;;;2603742;54;20085;31
2022/02/23 00:20:41;;;;;;;15.07;5.15;;;4.80;99.90;;;;;;2603810;54;20863;31
2022/02/23 00:23:30;;;;;;;18.73;4.22;;;4.80;99.90;;;;;;2602994;54;20026;31
2022/02/23 00:26:08;;;;;;;12.65;4.00;;;4.80;99.90;;;;;;2604116;54;20050;31
2022/02/23 00:28:54;;;;;;;15.90;4.88;;;4.80;99.90;;;;;;2622165;46;20022;31
2022/02/23 00:31:31;;;;;;;13.43;4.63;;;4.80;99.90;;;;;;2603492;54;20664;31
2022/02/23 00:34:07;;;;;;;12.10;4.65;;;4.70;99.90;;;;;;2603920;54;19946;31
2022/02/23 00:36:47;;;;;;;17.98;4.88;;;4.70;99.90;;;;;;2603841;54;20795;31
2022/02/23 00:39:32;;;;;;;14.70;4.80;;;4.60;99.90;;;;;;2603641;54;20027;31
2022/02/23 00:42:11;;;;;;;16.30;4.70;;;4.70;99.90;;;;;;2702330;39;20760;31
2022/02/23 00:44:45;;;;;;;18.23;5.50;;;4.70;99.90;;;;;;2622402;46;20046;31
2022/02/23 00:47:23;;;;;;;13.75;5.53;;;4.70;99.90;;;;;;2603429;54;20505;31
2022/02/23 00:49:58;;;;;;;16.07;5.23;;;4.70;99.90;;;;;;2603544;54;20556;31
2022/02/23 00:52:34;;;;;;;11.77;5.40;;;4.60;99.90;;;;;;2603539;54;20039;31
2022/02/23 00:55:08;;;;;;;16.80;5.60;;;4.70;99.90;;;;;;2773516;31;20596;31
2022/02/23 00:57:50;;;;;;;10.00;5.00;;;4.70;99.90;;;;;;2603338;54;20057;31
2022/02/23 01:00:35;;;;;;;15.38;5.93;;;4.60;99.90;;;;;;2603612;54;20030;31
2022/02/23 01:03:14;;;;;;;14.95;5.53;;;4.60;99.90;;;;;;2603401;54;20663;31
2022/02/23 01:06:04;;;;;;;14.60;5.63;;;4.60;99.90;;;;;;2602915;54;20026;31
2022/02/23 01:08:53;;;;;;;15.63;6.50;;;4.60;99.90;;;;;;2622322;46;20883;31
2022/02/23 01:11:37;;;;;;;10.75;5.25;;;4.60;99.90;;;;;;2603545;54;20030;31
2022/02/23 01:14:17;;;;;;;10.30;4.80;;;4.60;99.90;;;;;;2603871;54;20027;31
2022/02/23 01:16:53;;;;;;;13.38;5.38;;;4.70;99.90;;;;;;2603394;54;20030;31
2022/02/23 01:19:35;;;;;;;8.88;4.68;;;4.60;99.90;;;;;;2622211;46;20053;31
2022/02/23 01:22:17;;;;;;;11.90;5.95;;;4.60;99.90;;;;;;2603559;54;20026;31
2022/02/23 01:24:54;;;;;;;15.57;5.95;;;4.60;99.90;;;;;;2603464;54;20027;31
2022/02/23 01:27:44;;;;;;;12.90;5.32;;;4.60;99.90;;;;;;2603287;54;20027;31
2022/02/23 01:30:23;;;;;;;11.65;4.80;;;4.60;99.90;;;;;;2603671;54;21745;31
2022/02/23 01:33:01;;;;;;;11.80;5.20;;;4.70;99.90;;;;;;2603752;54;20093;31
2022/02/23 01:35:37;;;;;;;13.98;6.03;;;4.60;99.90;;;;;;2603265;54;20873;31
2022/02/23 01:38:13;;;;;;;12.90;6.75;;;4.70;99.90;;;;;;2603488;54;20027;31
2022/02/23 01:40:47;;;;;;;11.35;4.65;;;4.70;99.90;;;;;;2603021;54;20933;31
2022/02/23 01:43:27;;;;;;;12.88;5.25;;;4.70;99.90;;;;;;2603521;54;20026;31
2022/02/23 01:46:05;;;;;;;16.73;7.43;;;4.70;99.90;;;;;;2603363;54;20796;31
2022/02/23 01:48:43;;;;;;;9.43;5.40;;;4.70;99.90;;;;;;2603236;54;20908;31
2022/02/23 01:51:21;;;;;;;12.65;5.35;;;4.70;99.90;;;;;;2701027;39;20594;31
2022/02/23 01:54:03;;;;;;;11.60;5.47;;;4.70;99.90;;;;;;2603600;54;20060;31
2022/02/23 01:56:40;;;;;;;9.60;6.00;;;4.70;99.90;;;;;;2603636;54;20060;31
2022/02/23 01:59:18;;;;;;;13.30;5.80;;;4.60;99.90;;;;;;2603216;54;20061;31
2022/02/23 02:01:56;;;;;;;;;;;4.60;99.90;;;;;;2621791;46;20046;31
2022/02/23 02:04:33;;;;;;;9.75;5.15;;;4.70;99.90;;;;;;2603173;54;20028;31
2022/02/23 02:07:08;;;;;;;7.75;4.35;;;4.70;99.90;;;;;;2603297;54;20901;31
2022/02/23 02:09:45;;;;;;;8.63;4.78;;;4.80;99.90;;;;;;2603448;54;20904;31
2022/02/23 02:12:21;;;;;;;8.48;4.75;;;4.70;99.90;;;;;;2603614;54;20022;31
2022/02/23 02:15:02;;;;;;;8.65;4.45;;;4.80;99.90;;;;;;2603105;54;20137;31
2022/02/23 02:17:44;;;;;;;8.25;4.20;;;4.80;99.90;;;;;;2701938;39;20540;31
2022/02/23 02:20:22;;;;;;;7.95;4.13;;;4.80;99.90;;;;;;2621868;46;20057;31
2022/02/23 02:23:03;;;;;;;5.95;3.90;;;4.80;99.90;;;;;;2602593;54;20029;31
2022/02/23 02:25:40;;;;;;;6.85;3.30;;;4.80;99.90;;;;;;2603516;54;20085;31
2022/02/23 02:28:16;;;;;;;8.63;3.88;;;4.80;99.90;;;;;;2602814;54;20802;31
2022/02/23 02:30:50;;;;;;;;;;;4.90;99.90;;;;;;2603686;54;20837;31
2022/02/23 02:33:25;;;;;;;7.22;3.15;;;4.90;99.90;;;;;;2702020;39;20459;31
2022/02/23 02:38:56;;;;;;;7.33;3.17;;;4.90;99.90;;;;;;2622000;46;20042;31
2022/02/23 02:41:31;;;;;;;6.97;2.75;;;4.90;99.90;;;;;;2603404;54;20023;31
2022/02/23 02:44:05;;;;;;;6.23;2.90;;;5.00;99.90;;;;;;2603041;54;20739;31
2022/02/23 02:46:44;;;;;;;7.07;3.60;;;5.00;99.90;;;;;;2603229;54;20057;31
2022/02/23 02:49:22;;;;;;;7.72;3.65;;;5.00;99.90;;;;;;2603409;54;20022;31
2022/02/23 02:52:03;;;;;;;5.70;3.25;;;5.00;99.90;;;;;;2621463;46;20037;31
2022/02/23 02:54:41;;;;;;;8.77;3.30;;;5.00;99.90;;;;;;2701814;39;20457;31
2022/02/23 02:57:19;;;;;;;6.88;2.95;;;5.10;99.90;;;;;;2603072;54;20182;31
2022/02/23 02:59:57;;;;;;;5.50;2.95;;;5.10;99.90;;;;;;2603061;54;20884;31
2022/02/23 03:02:32;;;;;;;8.70;3.85;;;5.10;99.90;;;;;;2603039;54;20736;31
2022/02/23 03:07:59;;;;;;;8.90;4.28;;;5.10;99.90;;;;;;2603281;54;20704;31
2022/02/23 03:10:40;;;;;;;5.78;3.75;;;5.20;99.90;;;;;;2602327;54;20955;31
2022/02/23 03:13:15;;;;;;;10.30;4.15;;;5.20;99.90;;;;;;2701658;39;22347;31
2022/02/23 03:15:59;;;;;;;9.70;3.40;;;5.30;99.90;;;;;;2618613;46;20046;31
2022/02/23 03:21:40;;;;;;;5.57;2.60;;;5.30;99.90;;;;;;2603963;54;20791;31
2022/02/23 03:24:29;;;;;;;7.35;2.35;;;5.40;99.90;;;;;;2603822;54;20138;31
2022/02/23 03:27:09;;;;;;;6.07;2.27;;;5.40;99.90;;;;;;2603866;54;21557;31
2022/02/23 03:29:47;;;;;;;4.97;1.70;;;5.50;99.90;;;;;;2603887;54;20315;31
2022/02/23 03:32:23;;;;;;;5.57;1.50;;;5.60;99.90;;;;;;2604064;54;20270;31
2022/02/23 03:35:04;;;;;;;5.30;1.58;;;5.50;99.90;;;;;;2603565;54;21393;31
2022/02/23 03:37:41;;;;;;;4.90;1.10;;;5.60;99.90;;;;;;2603502;54;20788;31
2022/02/23 03:40:17;;;;;;;;;;;5.60;99.90;;;;;;2622903;46;20036;31
2022/02/23 03:42:56;;;;;;;5.30;1.50;;;5.50;99.90;;;;;;2603900;54;20533;31
2022/02/23 03:48:33;;;;;;;8.18;1.45;;;5.50;99.90;;;;;;2603584;54;20101;31
2022/02/23 03:51:24;;;;;;;7.85;1.70;;;5.50;99.90;;;;;;2603912;54;20687;31
2022/02/23 03:54:00;;;;;;;6.00;1.40;;;5.40;99.90;;;;;;2604065;54;20022;31
2022/02/23 03:56:43;;;;;;;12.85;1.95;;;5.50;99.90;;;;;;2792596;31;20524;31
2022/02/23 03:59:21;;;;;;;7.23;1.70;;;5.50;99.90;;;;;;2603789;54;20050;31
2022/02/23 04:01:58;;;;;;;8.52;1.88;;;5.50;99.90;;;;;;2603913;54;20026;31
2022/02/23 04:04:35;;;;;;;7.23;2.00;;;5.50;99.90;;;;;;2603917;54;20030;31
2022/02/23 04:07:12;;;;;;;10.93;1.75;;;5.50;99.90;;;;;;2603739;54;20881;31
2022/02/23 04:09:51;;;;;;;8.25;1.80;;;5.50;99.90;;;;;;2603711;54;20046;31
2022/02/23 04:12:28;;;;;;;14.82;2.25;;;5.50;99.90;;;;;;2603733;54;20862;31
2022/02/23 04:15:09;;;;;;;11.30;2.00;;;5.40;99.90;;;;;;2603171;54;20755;31
2022/02/23 04:17:49;;;;;;;14.90;2.15;;;5.40;99.90;;;;;;2603247;46;20113;31
2022/02/23 04:20:24;;;;;;;13.13;2.20;;;5.40;99.90;;;;;;2603683;54;20036;31
2022/02/23 04:23:01;;;;;;;14.02;2.28;;;5.40;99.90;;;;;;2702226;39;20546;31
2022/02/23 04:25:43;;;;;;;12.50;2.30;;;5.30;99.90;;;;;;2622106;46;20029;31
2022/02/23 04:28:25;;;;;;;11.25;2.22;;;5.40;99.90;;;;;;2603807;54;20046;31
2022/02/23 04:31:09;;;;;;;9.20;1.60;;;5.30;99.90;;;;;;2603714;54;20073;31
2022/02/23 04:33:44;;;;;;;13.43;2.10;;;5.30;99.90;;;;;;2603427;54;20056;31
2022/02/23 04:36:19;;;;;;;14.40;1.95;;;5.30;99.90;;;;;;2603332;54;20026;31
2022/02/23 04:39:08;;;;;;;13.63;2.00;;;5.30;99.90;;;;;;2603524;54;20022;31
2022/02/23 04:41:49;;;;;;;11.75;1.55;;;5.30;99.90;;;;;;2603577;54;20046;31
2022/02/23 04:44:27;;;;;;;11.27;2.78;;;5.30;99.90;;;;;;2602769;54;20073;31
2022/02/23 04:47:04;;;;;;;12.93;1.60;;;5.30;99.90;;;;;;2603912;54;20097;31
2022/02/23 04:49:40;;;;;;;12.38;2.08;;;5.30;99.90;;;;;;2622321;46;20030;31
2022/02/23 04:52:17;;;;;;;9.30;2.00;;;5.20;99.90;;;;;;2603151;54;20860;31
2022/02/23 04:54:55;;;;;;;18.63;2.17;;;5.20;99.90;;;;;;2603731;54;20053;31
2022/02/23 04:57:31;;;;;;;13.27;2.87;;;5.20;99.90;;;;;;2603363;54;20910;31
2022/02/23 05:00:09;;;;;;;13.95;1.85;;;5.20;99.90;;;;;;2622008;46;20027;31
2022/02/23 05:02:47;;;;;;;16.10;2.10;;;5.10;99.90;;;;;;2603703;54;20034;31
2022/02/23 05:05:27;;;;;;;15.97;2.47;;;5.20;99.90;;;;;;2603679;54;20168;31
2022/02/23 05:08:00;;;;;;;12.45;1.90;;;5.20;99.90;;;;;;2603515;54;19965;31
2022/02/23 05:10:37;;;;;;;14.47;2.00;;;5.10;99.90;;;;;;2603276;54;20054;31
2022/02/23 05:13:18;;;;;;;10.45;1.95;;;5.20;99.90;;;;;;2603639;54;20394;31
2022/02/23 05:15:53;;;;;;;13.43;2.00;;;5.20;99.90;;;;;;2603545;54;21002;31
2022/02/23 05:18:33;;;;;;;17.88;2.85;;;5.20;99.90;;;;;;2603647;54;21834;31
2022/02/23 05:21:09;;;;;;;24.05;5.60;;;5.10;99.90;;;;;;2603634;54;20026;31
2022/02/23 05:23:45;;;;;;;16.27;2.90;;;5.20;99.90;;;;;;2622035;46;20050;31
2022/02/23 05:26:19;;;;;;;14.07;2.53;;;5.10;99.90;;;;;;2603515;54;20038;31
2022/02/23 05:29:00;;;;;;;19.37;3.10;;;5.00;99.90;;;;;;2603486;54;20908;31
2022/02/23 05:31:34;;;;;;;21.40;3.65;;;5.00;99.90;;;;;;2603584;54;20058;31
2022/02/23 05:34:11;;;;;;;15.05;2.72;;;5.00;99.90;;;;;;2720929;39;21018;31
2022/02/23 05:36:51;;;;;;;15.60;3.50;;;5.10;99.90;;;;;;2602544;54;20790;31
2022/02/23 05:39:30;;;;;;;21.95;3.83;;;5.10;99.90;;;;;;2602825;54;20919;31
2022/02/23 05:42:05;;;;;;;16.92;3.78;;;5.00;99.90;;;;;;2603678;54;20057;31
2022/02/23 05:44:43;;;;;;;28.93;4.60;;;5.00;99.90;;;;;;2603525;54;20060;31
2022/02/23 05:47:26;;;;;;;25.58;5.30;;;5.00;99.90;;;;;;2603310;54;20293;31
2022/02/23 05:50:23;;;;;;;22.58;3.88;;;5.00;99.90;;;;;;2602752;54;20909;31
2022/02/23 05:56:36;;;;;;;25.70;4.40;;;4.90;99.90;;;;;;2603319;54;20026;31
2022/02/23 05:59:13;;;;;;;28.10;3.65;;;4.90;99.90;;;;;;2603489;54;20022;31
2022/02/23 06:01:48;;;;;;;24.97;3.33;;;4.80;99.90;;;;;;2603468;54;20035;31
2022/02/23 06:04:24;;;;;;;;;;;4.80;99.90;;;;;;2603579;54;20033;31
2022/02/23 06:13:32;;;;;;;33.83;5.55;;;4.80;99.90;;;;;;2701700;39;20468;31
2022/02/23 06:16:11;;;;;;;22.50;4.85;;;4.80;99.90;;;;;;2603476;54;20871;31
2022/02/23 06:18:46;;;;;;;20.65;5.10;;;4.80;99.90;;;;;;2603385;54;20041;31
2022/02/23 07:53:20;;;;;;;12.13;2.22;;;6.20;99.90;;;;;;2600737;54;20019;31
2022/02/23 08:30:59;;;;;;;16.25;3.45;;;7.10;99.90;;;;;;2601443;54;20104;31
2022/02/23 08:40:41;;;;;;;13.00;2.00;;;6.90;99.90;;;;;;2604326;46;20027;31
2022/02/23 10:02:45;;;;;;;12.23;2.17;;;8.70;99.90;;;;;;2601041;54;20014;31
2022/02/23 10:47:15;;;;;;;11.85;2.00;;;9.20;99.90;;;;;;2603362;54;20576;31
2022/02/23 10:56:23;;;;;;;10.88;1.75;;;9.10;99.90;;;;;;2702044;39;20489;31
2022/02/23 11:09:00;;;;;;;10.98;2.38;;;9.40;99.90;;;;;;2603117;54;20026;31
2022/02/23 11:18:07;;;;;;;7.90;1.52;;;9.50;99.90;;;;;;2603262;54;20039;31
2022/02/23 11:21:13;;;;;;;6.80;1.60;;;9.60;99.90;;;;;;2611582;47;20471;31
2022/02/23 11:30:00;;;;;;;11.75;1.73;;;9.50;99.90;;;;;;2603274;54;21474;31
2022/02/23 11:32:45;;;;;;;9.10;1.58;;;9.70;99.90;;;;;;2603248;54;20617;31
2022/02/23 11:35:40;;;;;;;7.88;1.70;;;9.80;99.90;;;;;;2603431;54;20656;31
2022/02/23 11:38:38;;;;;;;11.60;1.65;;;9.80;99.90;;;;;;2721261;39;20527;31
2022/02/23 11:41:25;;;;;;;10.68;1.90;;;9.60;99.90;;;;;;2622333;46;20073;31
2022/02/23 11:44:10;;;;;;;8.45;1.65;;;9.50;99.90;;;;;;2604175;54;20032;31
2022/02/23 11:50:13;;;;;;;11.05;1.33;;;9.30;99.90;;;;;;2603895;54;20026;31
2022/02/23 11:52:59;;;;;;;9.60;1.92;;;9.40;99.90;;;;;;2702638;39;21006;31
2022/02/23 11:55:42;;;;;;;10.73;1.52;;;9.50;99.90;;;;;;2603869;54;20841;31
2022/02/23 11:58:49;;;;;;;9.07;1.63;;;9.50;99.90;;;;;;2604062;54;20045;31
2022/02/23 12:01:24;;;;;;;6.78;1.45;;;9.40;99.90;;;;;;2622187;46;20042;31
2022/02/23 12:04:12;;;;;;;7.20;1.25;;;9.40;99.90;;;;;;2702449;39;20492;31
2022/02/23 12:07:08;;;;;;;8.40;1.30;;;9.40;99.90;;;;;;2603795;54;20046;31
2022/02/23 12:10:09;;;;;;;6.65;1.80;;;9.40;99.90;;;;;;2603853;54;20875;31
2022/02/23 12:12:46;;;;;;;10.35;1.73;;;9.50;99.90;;;;;;2604209;54;20050;31
2022/02/23 12:15:29;;;;;;;12.70;1.60;;;9.70;99.90;;;;;;2603743;54;20034;31
2022/02/23 12:18:04;;;;;;;8.70;1.40;;;9.80;99.90;;;;;;2622115;46;20881;31
2022/02/23 12:21:01;;;;;;;5.57;1.60;;;9.90;99.90;;;;;;2603685;54;20042;31
2022/02/23 12:23:39;;;;;;;10.82;1.75;;;10.00;99.90;;;;;;2603499;54;20037;31
2022/02/23 12:29:21;;;;;;;5.50;1.43;;;9.80;99.90;;;;;;2622098;46;20124;31
2022/02/23 12:31:56;;;;;;;7.93;2.00;;;9.70;99.90;;;;;;2603642;54;20246;31
2022/02/23 12:34:32;;;;;;;11.65;1.33;;;9.70;99.90;;;;;;2622389;46;20023;31
2022/02/23 12:37:27;;;;;;;7.53;1.60;;;9.80;99.90;;;;;;2603929;54;20878;31
2022/02/23 12:40:05;;;;;;;10.43;2.00;;;9.90;99.90;;;;;;2602983;54;20597;31
2022/02/23 12:42:41;;;;;;;9.55;1.55;;;9.90;99.90;;;;;;2603626;54;20585;31
2022/02/23 12:45:19;;;;;;;7.50;1.43;;;9.90;99.90;;;;;;2603591;54;20125;31
2022/02/23 12:48:01;;;;;;;12.03;2.00;;;9.90;99.90;;;;;;2603922;54;20037;31
2022/02/23 12:50:37;;;;;;;12.18;1.92;;;9.80;99.90;;;;;;2603768;54;20889;31
2022/02/23 12:53:11;;;;;;;8.85;1.70;;;9.70;99.90;;;;;;2603610;54;20030;31
2022/02/23 12:55:46;;;;;;;7.05;1.50;;;9.80;99.90;;;;;;2603572;54;20081;31
2022/02/23 12:58:35;;;;;;;5.78;1.25;;;9.60;99.90;;;;;;2603573;54;20059;31
2022/02/23 13:03:44;;;;;;;10.63;1.85;;;9.50;99.90;;;;;;2603730;54;20037;31
2022/02/23 13:06:22;;;;;;;11.75;2.05;;;9.50;99.90;;;;;;2603595;54;20069;31
2022/02/23 13:08:56;;;;;;;6.65;1.90;;;9.60;99.90;;;;;;2622032;46;20031;31
2022/02/23 13:11:32;;;;;;;7.60;2.00;;;9.70;99.90;;;;;;2608024;46;20038;31
2022/02/23 13:14:11;;;;;;;;;;;9.70;99.90;;;;;;2622592;46;21339;31
2022/02/23 13:16:47;;;;;;;6.25;0.95;;;9.60;99.90;;;;;;2603500;54;20795;31
2022/02/23 13:19:25;;;;;;;6.20;1.05;;;9.60;99.90;;;;;;2603580;54;20611;31
2022/02/23 13:22:01;;;;;;;3.53;0.90;;;9.50;99.90;;;;;;2604441;46;20035;31
2022/02/23 13:24:36;;;;;;;8.10;1.55;;;9.50;99.90;;;;;;2603604;54;20030;31
2022/02/23 13:27:13;;;;;;;8.10;1.48;;;9.50;99.90;;;;;;2603772;54;20849;31
2022/02/23 13:29:48;;;;;;;8.20;1.15;;;9.50;99.90;;;;;;2603692;54;20129;31
2022/02/23 13:32:28;;;;;;;8.35;2.22;;;9.50;99.90;;;;;;2603418;54;20029;31
2022/02/23 13:35:08;;;;;;;7.40;1.48;;;9.50;99.90;;;;;;2603630;54;20034;31
2022/02/23 13:37:46;;;;;;;7.68;1.75;;;9.60;99.90;;;;;;2622142;46;21414;31
2022/02/23 13:40:23;;;;;;;6.63;1.50;;;9.70;99.90;;;;;;2603745;54;20548;31
2022/02/23 13:43:01;;;;;;;8.05;1.00;;;9.80;99.90;;;;;;2603626;54;20108;31
2022/02/23 13:45:39;;;;;;;9.13;1.30;;;9.80;99.90;;;;;;2603797;54;20914;31
2022/02/23 13:48:14;;;;;;;7.20;1.60;;;9.80;99.90;;;;;;2603493;54;20187;31
2022/02/23 13:50:51;;;;;;;5.13;1.10;;;9.70;99.90;;;;;;2622140;46;20026;31
2022/02/23 13:53:32;;;;;;;7.22;1.40;;;9.60;99.90;;;;;;2701771;39;20516;31
2022/02/23 13:56:19;;;;;;;6.13;1.30;;;9.60;99.90;;;;;;2603603;54;20890;31
2022/02/23 13:59:03;;;;;;;6.57;1.17;;;9.60;99.90;;;;;;2603391;54;20046;31
2022/02/23 14:01:38;;;;;;;8.60;1.20;;;9.50;99.90;;;;;;2603384;54;20855;31
2022/02/23 14:04:13;;;;;;;6.57;1.17;;;9.50;99.90;;;;;;2603675;54;20868;31
2022/02/23 14:06:51;;;;;;;6.70;1.17;;;9.40;99.90;;;;;;2603444;54;20851;31
2022/02/23 14:09:27;;;;;;;8.38;2.17;;;9.30;99.90;;;;;;2603483;54;20250;31
2022/02/23 14:12:02;;;;;;;10.98;1.40;;;9.30;99.90;;;;;;2622015;46;20026;31
2022/02/23 14:14:38;;;;;;;7.03;1.27;;;9.20;99.90;;;;;;2603681;54;20034;31
2022/02/23 14:17:24;;;;;;;11.80;1.30;;;9.20;99.90;;;;;;2603320;54;20031;31
2022/02/23 14:20:12;;;;;;;10.00;1.85;;;9.20;99.90;;;;;;2622102;46;20042;31
2022/02/23 14:23:00;;;;;;;8.02;2.13;;;9.20;99.90;;;;;;2621831;46;20037;31
2022/02/23 14:25:35;;;;;;;6.83;1.40;;;9.20;99.90;;;;;;2603476;54;20126;31
2022/02/23 14:28:10;;;;;;;9.15;1.95;;;9.20;99.90;;;;;;2603360;54;20243;31
2022/02/23 14:30:45;;;;;;;9.45;1.30;;;9.10;99.90;;;;;;2603455;54;20033;31
2022/02/23 14:33:31;;;;;;;6.50;1.35;;;9.20;99.90;;;;;;2603227;54;20034;31
2022/02/23 14:36:07;;;;;;;7.95;1.08;;;9.10;99.90;;;;;;2603423;54;20846;31
2022/02/23 14:38:45;;;;;;;7.00;1.50;;;9.10;99.90;;;;;;2603269;54;20141;31
2022/02/23 14:41:20;;;;;;;8.57;1.40;;;9.20;99.90;;;;;;2603375;54;20891;31
2022/02/23 14:43:54;;;;;;;8.45;1.52;;;9.20;99.90;;;;;;2603325;54;20046;31
2022/02/23 14:46:29;;;;;;;9.27;1.60;;;9.10;99.90;;;;;;2603301;54;20133;31
2022/02/23 14:49:04;;;;;;;8.93;1.42;;;9.10;99.90;;;;;;2621714;46;20049;31
2022/02/23 14:51:38;;;;;;;9.60;1.52;;;9.10;99.90;;;;;;2603279;54;20030;31
2022/02/23 14:54:17;;;;;;;10.50;1.80;;;9.00;99.90;;;;;;2603461;54;20085;31
2022/02/23 14:56:52;;;;;;;11.80;1.50;;;9.00;99.90;;;;;;2621741;46;20076;31
2022/02/23 14:59:29;;;;;;;8.10;1.35;;;9.00;99.90;;;;;;2603602;54;20281;31
2022/02/23 15:02:03;;;;;;;12.52;1.98;;;8.90;99.90;;;;;;2621668;46;20042;31
2022/02/23 15:04:38;;;;;;;8.00;1.70;;;8.90;99.90;;;;;;2602777;54;20040;31
2022/02/23 15:07:13;;;;;;;9.18;2.50;;;9.00;99.90;;;;;;2603522;54;20023;31
2022/02/23 15:09:51;;;;;;;6.80;1.70;;;9.00;99.90;;;;;;2604290;54;20042;31
2022/02/23 15:12:26;;;;;;;7.40;1.58;;;9.00;99.90;;;;;;2604096;54;20909;31
2022/02/23 15:15:01;;;;;;;9.00;2.00;;;9.00;99.90;;;;;;2604853;54;20134;31
2022/02/23 15:17:36;;;;;;;7.82;2.03;;;9.00;99.90;;;;;;2604326;54;20058;31
2022/02/23 15:20:14;;;;;;;8.68;2.08;;;9.00;99.90;;;;;;2604848;54;20030;31
2022/02/23 15:22:48;;;;;;;10.75;1.70;;;9.00;99.90;;;;;;2604862;54;20930;31
2022/02/23 15:25:26;;;;;;;10.05;1.80;;;8.90;99.90;;;;;;2604997;54;20889;31
2022/02/23 15:28:01;;;;;;;11.75;1.50;;;8.80;99.90;;;;;;2604945;54;20117;31
2022/02/23 15:30:36;;;;;;;10.35;1.50;;;8.80;99.90;;;;;;2623517;46;20033;31
2022/02/23 15:33:13;;;;;;;11.38;1.92;;;8.70;99.90;;;;;;2604756;54;20836;31
2022/02/23 15:35:51;;;;;;;8.75;1.63;;;8.60;99.90;;;;;;2604975;54;20026;31
2022/02/23 15:38:26;;;;;;;8.85;2.10;;;8.50;99.90;;;;;;2605042;54;20026;31
2022/02/23 15:41:03;;;;;;;11.32;1.70;;;8.40;99.90;;;;;;2621011;46;25146;31
2022/02/23 15:43:38;;;;;;;8.75;2.15;;;8.30;99.90;;;;;;2604794;54;20101;31
2022/02/23 15:46:13;;;;;;;8.27;1.58;;;8.30;99.90;;;;;;2604962;54;20046;31
2022/02/23 15:48:48;;;;;;;7.90;1.60;;;8.20;99.90;;;;;;2605016;54;20037;31
2022/02/23 15:51:22;;;;;;;8.43;1.85;;;8.20;99.90;;;;;;2604764;54;20038;31
2022/02/23 15:53:56;;;;;;;8.98;1.35;;;8.10;99.90;;;;;;2604577;54;20034;31
2022/02/23 15:56:33;;;;;;;7.63;1.40;;;8.10;99.90;;;;;;2604957;54;20068;31
2022/02/23 15:59:07;;;;;;;5.35;1.20;;;8.00;99.90;;;;;;2604887;54;20059;31
2022/02/23 16:01:42;;;;;;;9.40;1.63;;;7.90;99.90;;;;;;2604738;54;20027;31
2022/02/23 16:04:19;;;;;;;9.95;2.25;;;7.90;99.90;;;;;;2604612;54;20044;31
2022/02/23 16:06:55;;;;;;;8.65;1.95;;;7.80;99.90;;;;;;2604812;54;20038;31
2022/02/23 16:09:29;;;;;;;5.70;1.00;;;7.80;99.90;;;;;;2604613;54;20340;31
2022/02/23 16:12:11;;;;;;;6.80;1.90;;;7.80;99.90;;;;;;2604535;54;20862;31
2022/02/23 16:14:46;;;;;;;9.18;2.08;;;7.70;99.90;;;;;;2623209;46;20032;31
2022/02/23 16:17:24;;;;;;;8.23;1.90;;;7.70;99.90;;;;;;2604701;54;20030;31
2022/02/23 16:20:19;;;;;;;10.57;2.85;;;7.60;99.90;;;;;;2604376;54;20050;31
2022/02/23 16:22:54;;;;;;;9.13;2.58;;;7.50;99.90;;;;;;2603686;54;19956;31
2022/02/23 16:25:31;;;;;;;9.53;2.07;;;7.50;99.90;;;;;;2603707;54;20554;31
2022/02/23 16:28:11;;;;;;;9.43;2.03;;;7.40;99.90;;;;;;2603791;54;20046;31
2022/02/23 16:30:46;;;;;;;8.30;2.27;;;7.40;99.90;;;;;;2622269;46;20908;31
2022/02/23 16:33:20;;;;;;;8.38;2.13;;;7.40;99.90;;;;;;2773759;31;20640;31
2022/02/23 16:35:55;;;;;;;8.70;2.10;;;7.30;99.90;;;;;;2603797;54;20161;31
2022/02/23 16:38:30;;;;;;;10.17;1.67;;;7.20;99.90;;;;;;2603797;54;20971;31
2022/02/23 16:41:05;;;;;;;7.77;1.87;;;7.20;99.90;;;;;;2603658;54;20030;31
2022/02/23 16:43:42;;;;;;;10.67;2.23;;;7.50;99.90;;;;;;2603950;54;20060;31
2022/02/23 16:46:17;;;;;;;11.75;2.78;;;7.80;99.90;;;;;;2603866;54;20857;31
2022/02/23 16:48:52;;;;;;;11.15;2.38;;;8.10;99.90;;;;;;2603862;54;20053;31
2022/02/23 16:51:28;;;;;;;10.73;1.98;;;8.30;99.90;;;;;;2622446;46;20038;31
2022/02/23 16:54:08;;;;;;;8.23;1.90;;;8.20;99.90;;;;;;2603493;54;20079;31
2022/02/23 16:56:43;;;;;;;10.45;2.15;;;8.00;99.90;;;;;;2603645;54;20984;31
2022/02/23 16:59:22;;;;;;;12.90;2.42;;;7.80;99.90;;;;;;2603502;54;20088;31
2022/02/23 17:01:57;;;;;;;11.32;2.08;;;7.60;99.90;;;;;;2603791;54;20109;31
2022/02/23 17:04:31;;;;;;;12.00;2.38;;;7.50;99.90;;;;;;2603754;54;20034;31
2022/02/23 17:07:06;;;;;;;6.93;1.83;;;7.40;99.90;;;;;;2603723;54;20038;31
2022/02/23 17:09:42;;;;;;;11.00;2.00;;;7.30;99.90;;;;;;2603627;54;20057;31
2022/02/23 17:12:17;;;;;;;8.23;1.95;;;7.20;99.90;;;;;;2603602;54;20097;31
2022/02/23 17:14:55;;;;;;;12.43;5.50;;;7.10;99.90;;;;;;2622258;46;20026;31
2022/02/23 17:17:30;;;;;;;16.70;9.50;;;7.10;99.90;;;;;;2603382;54;20815;31
2022/02/23 17:20:04;;;;;;;16.03;8.97;;;7.00;99.90;;;;;;2603577;54;20042;31
2022/02/23 17:22:38;;;;;;;17.70;9.45;;;6.90;99.90;;;;;;2603656;54;20854;31
2022/02/23 17:25:12;;;;;;;19.03;9.03;;;6.90;99.90;;;;;;2603569;54;20207;31
2022/02/23 17:27:48;;;;;;;;;;;6.80;99.90;;;;;;2603571;54;20031;31
2022/02/23 17:30:26;;;;;;;15.57;5.70;;;6.80;99.90;;;;;;2621981;46;19989;31
2022/02/23 17:33:01;;;;;;;14.30;6.00;;;6.70;99.90;;;;;;2603168;54;20887;31
2022/02/23 17:35:36;;;;;;;20.70;8.00;;;6.70;99.90;;;;;;2603429;54;20101;31
2022/02/23 17:38:10;;;;;;;27.75;10.10;;;6.60;99.90;;;;;;2603512;54;20595;31
2022/02/23 17:40:47;;;;;;;33.35;13.20;;;6.50;99.90;;;;;;2603689;54;20061;31
2022/02/23 17:43:22;;;;;;;28.63;11.98;;;6.50;99.90;;;;;;2603652;54;20105;31
2022/02/23 17:45:59;;;;;;;31.00;11.48;;;6.50;99.90;;;;;;2603265;54;20053;31
2022/02/23 17:48:34;;;;;;;29.13;11.07;;;6.40;99.90;;;;;;2621586;46;20117;31
2022/02/23 17:51:08;;;;;;;33.15;13.48;;;6.40;99.90;;;;;;2701852;39;20465;31
2022/02/23 17:53:42;;;;;;;21.75;10.07;;;6.40;99.90;;;;;;2603211;54;20034;31
2022/02/23 17:56:18;;;;;;;17.65;8.20;;;6.40;99.90;;;;;;2603443;54;19941;31
2022/02/23 17:58:52;;;;;;;26.20;10.00;;;6.50;99.90;;;;;;2603518;54;20031;31
2022/02/23 18:01:29;;;;;;;24.35;10.07;;;6.40;99.90;;;;;;2622270;46;20097;31
2022/02/23 18:04:05;;;;;;;20.35;8.88;;;6.40;99.90;;;;;;2603594;54;20057;31
2022/02/23 18:06:39;;;;;;;19.88;7.47;;;6.40;99.90;;;;;;2603484;54;20046;31
2022/02/23 18:09:13;;;;;;;16.60;5.75;;;6.40;99.90;;;;;;2603637;54;20057;31
2022/02/23 18:11:48;;;;;;;12.45;5.50;;;6.40;99.90;;;;;;2603378;54;20157;31
2022/02/23 18:14:22;;;;;;;22.63;7.03;;;6.40;99.90;;;;;;2603363;54;20158;31
2022/02/23 18:16:59;;;;;;;15.60;5.85;;;6.40;99.90;;;;;;2603408;54;20046;31
2022/02/23 18:19:35;;;;;;;20.75;7.78;;;6.40;99.90;;;;;;2621545;46;20037;31
2022/02/23 18:22:15;;;;;;;23.53;8.93;;;6.40;99.90;;;;;;2602604;54;20056;31
2022/02/23 18:24:50;;;;;;;35.33;10.80;;;6.30;99.90;;;;;;2603463;54;20230;31
2022/02/23 18:27:25;;;;;;;23.15;7.88;;;6.30;99.90;;;;;;2621696;46;19935;31
2022/02/23 18:29:59;;;;;;;19.98;8.10;;;6.30;99.90;;;;;;2603478;54;20858;31
2022/02/23 18:32:37;;;;;;;19.58;7.22;;;6.20;99.90;;;;;;2621345;46;20081;31
2022/02/23 18:35:13;;;;;;;18.50;6.95;;;6.20;99.90;;;;;;2701806;39;20488;31
2022/02/23 18:37:47;;;;;;;20.52;8.43;;;6.20;99.90;;;;;;2602740;54;20053;31
2022/02/23 18:40:22;;;;;;;18.80;7.80;;;6.20;99.90;;;;;;2603154;54;20857;31
2022/02/23 18:42:56;;;;;;;20.87;9.20;;;6.10;99.90;;;;;;2603205;54;20910;31
2022/02/23 18:45:31;;;;;;;26.20;8.90;;;6.10;99.90;;;;;;2621319;47;20027;31
2022/02/23 18:48:08;;;;;;;24.07;8.47;;;6.10;99.90;;;;;;2622023;46;20085;31
2022/02/23 18:50:43;;;;;;;29.58;10.82;;;6.20;99.90;;;;;;2603314;54;20037;31
2022/02/23 18:53:20;;;;;;;28.23;12.15;;;6.20;99.90;;;;;;2603200;54;20026;31
2022/02/23 18:55:54;;;;;;;22.25;10.57;;;6.20;99.90;;;;;;2603237;54;20022;31
2022/02/23 18:58:29;;;;;;;25.80;12.70;;;6.20;99.90;;;;;;2603380;54;20022;31
2022/02/23 19:01:03;;;;;;;29.15;13.35;;;6.20;99.90;;;;;;2602479;54;19935;31
2022/02/23 19:04:01;;;;;;;26.55;11.30;;;6.20;99.90;;;;;;2622085;46;20034;31
2022/02/23 19:06:35;;;;;;;18.40;8.98;;;6.20;99.90;;;;;;2701754;39;20446;31
2022/02/23 19:09:10;;;;;;;24.70;9.40;;;6.10;99.90;;;;;;2603227;54;19935;31
2022/02/23 19:11:45;;;;;;;24.92;9.35;;;6.00;99.90;;;;;;2603090;54;20026;31
2022/02/23 19:14:19;;;;;;;21.10;8.85;;;6.10;99.90;;;;;;2603347;54;20574;31
2022/02/23 19:16:53;;;;;;;22.33;8.68;;;6.00;99.90;;;;;;2603159;54;20062;31